Etusivu
METAR-TAF:

METAR-TAF

Lentoasemat :

Dawson Community Airport

Glendive, Montana, Yhdysvallat

Leveyspiiri: 47-08N, Pituuspiiri: 104-48W, korkeus merenpinnasta: 749 m

Tämänhetkinen sää

Tämä raportti tehtiin 26 minuuttia sitten, kello 16.56 UTC
Tuuli 5 kn etelästä/lounaasta
Lämpötila 6°C
Kosteus 56%
Ilmanpaine 1015 hPa
Näkyvyys: 16.1 km
selkeää

METAR: KGDV 211656Z AUTO 20005KT 10SM CLR 06/M02 A2997 RMK AO2 SLP170 T00561017

Aika: 11:22 (17:22 UTC)

Sääennuste

Tämä raportti tehtiin 5 tuntia ja 45 minuuttia sitten, kello 11.37 UTC
Ennuste voimassa 21. päivästä klo 12 UTC - 22. päivään klo 12 UTC
Tuuli 4 kn eri suunnista
Näkyvyys: 10 km
selkeää
From 21. päivästä klo 2100 UTC
Tuuli 8 kn luoteesta
Näkyvyys: 10 km
Muutamia pilviä 8000 ft:n korkeudessa
From 22. päivästä klo 0000 UTC
Tuuli 5 kn eri suunnista
Näkyvyys: 10 km
Muutamia pilviä 8000 ft:n korkeudessa

TAF: KGDV 211137Z 2112/2212 VRB04KT P6SM SKC FM212100 31008KT P6SM FEW080 FM220000 VRB05KT P6SM FEW080

Säähavainnot ja -ennusteet yli 4000 lentoasemalta (METAR- ja TAF-raportit).

Käytössä olevat sääasemat on merkitty karttaan keltaisilla ja punaisilla pisteillä.

Aseta hiiri pisteen päälle nähdäksesi sääaseman nimen.

Klikkaa sitten nähdäksesi säähavainnot ja -ennusteet.

Kartan vaihtaminen: klikkaa mustalla rastilla varustettuja vihreitä pisteitä, niin voit zoomata sisään; viivalla varustettua vihreää pistettä, niin voit zoomata ulos tai vihreitä nuolia, niin pääset viereisille kartoille.


METAR-TAF: